sensor_id;sensor_type;location;lat;lon;timestamp;P1;durP1;ratioP1;P2;durP2;ratioP2
75820;SDS011;64454;51.984;9.838;2023-02-26T00:00:35;4.60;;;1.60;;
75820;SDS011;64454;51.984;9.838;2023-02-26T00:03:02;2.90;;;1.20;;
75820;SDS011;64454;51.984;9.838;2023-02-26T00:05:29;1.98;;;1.42;;
75820;SDS011;64454;51.984;9.838;2023-02-26T00:07:55;4.00;;;1.50;;
75820;SDS011;64454;51.984;9.838;2023-02-26T00:10:22;2.85;;;1.20;;
75820;SDS011;64454;51.984;9.838;2023-02-26T00:12:50;3.10;;;1.70;;
75820;SDS011;64454;51.984;9.838;2023-02-26T00:15:18;3.92;;;1.52;;
75820;SDS011;64454;51.984;9.838;2023-02-26T00:17:47;5.82;;;1.40;;
75820;SDS011;64454;51.984;9.838;2023-02-26T00:20:24;6.68;;;1.90;;
75820;SDS011;64454;51.984;9.838;2023-02-26T00:22:51;4.70;;;1.60;;
75820;SDS011;64454;51.984;9.838;2023-02-26T00:25:18;3.50;;;1.20;;
75820;SDS011;64454;51.984;9.838;2023-02-26T00:27:45;4.20;;;1.73;;
75820;SDS011;64454;51.984;9.838;2023-02-26T00:30:15;2.55;;;1.05;;
75820;SDS011;64454;51.984;9.838;2023-02-26T00:32:43;3.47;;;1.60;;
75820;SDS011;64454;51.984;9.838;2023-02-26T00:35:12;3.15;;;1.40;;
75820;SDS011;64454;51.984;9.838;2023-02-26T00:37:52;2.67;;;1.20;;
75820;SDS011;64454;51.984;9.838;2023-02-26T00:40:27;2.40;;;0.93;;
75820;SDS011;64454;51.984;9.838;2023-02-26T00:43:03;2.05;;;1.20;;
75820;SDS011;64454;51.984;9.838;2023-02-26T00:45:33;4.50;;;1.17;;
75820;SDS011;64454;51.984;9.838;2023-02-26T00:51:10;2.55;;;1.20;;
75820;SDS011;64454;51.984;9.838;2023-02-26T00:53:46;3.92;;;1.10;;
75820;SDS011;64454;51.984;9.838;2023-02-26T00:56:23;3.20;;;1.10;;
75820;SDS011;64454;51.984;9.838;2023-02-26T00:58:50;3.78;;;1.30;;
75820;SDS011;64454;51.984;9.838;2023-02-26T01:01:18;4.00;;;1.63;;
75820;SDS011;64454;51.984;9.838;2023-02-26T01:03:44;1.80;;;1.20;;
75820;SDS011;64454;51.984;9.838;2023-02-26T01:06:12;2.30;;;1.23;;
75820;SDS011;64454;51.984;9.838;2023-02-26T01:08:46;2.58;;;1.35;;
75820;SDS011;64454;51.984;9.838;2023-02-26T01:11:25;3.35;;;1.80;;
75820;SDS011;64454;51.984;9.838;2023-02-26T01:13:52;3.33;;;1.38;;
75820;SDS011;64454;51.984;9.838;2023-02-26T01:16:22;8.80;;;1.63;;
75820;SDS011;64454;51.984;9.838;2023-02-26T01:18:53;2.90;;;1.30;;
75820;SDS011;64454;51.984;9.838;2023-02-26T01:21:28;3.60;;;1.40;;
75820;SDS011;64454;51.984;9.838;2023-02-26T01:23:59;4.45;;;1.60;;
75820;SDS011;64454;51.984;9.838;2023-02-26T01:26:33;5.63;;;1.88;;
75820;SDS011;64454;51.984;9.838;2023-02-26T01:29:00;2.15;;;1.40;;
75820;SDS011;64454;51.984;9.838;2023-02-26T01:31:32;3.13;;;1.20;;
75820;SDS011;64454;51.984;9.838;2023-02-26T01:34:07;2.90;;;1.60;;
75820;SDS011;64454;51.984;9.838;2023-02-26T01:36:46;2.40;;;1.20;;
75820;SDS011;64454;51.984;9.838;2023-02-26T01:39:24;4.95;;;1.88;;
75820;SDS011;64454;51.984;9.838;2023-02-26T01:41:57;5.82;;;1.67;;
75820;SDS011;64454;51.984;9.838;2023-02-26T01:44:34;2.45;;;1.30;;
75820;SDS011;64454;51.984;9.838;2023-02-26T01:47:15;6.47;;;1.98;;
75820;SDS011;64454;51.984;9.838;2023-02-26T01:49:47;2.90;;;1.50;;
75820;SDS011;64454;51.984;9.838;2023-02-26T01:55:41;5.57;;;2.00;;
75820;SDS011;64454;51.984;9.838;2023-02-26T01:58:10;3.58;;;1.75;;
75820;SDS011;64454;51.984;9.838;2023-02-26T02:00:38;4.72;;;2.28;;
75820;SDS011;64454;51.984;9.838;2023-02-26T02:03:06;4.63;;;2.00;;
75820;SDS011;64454;51.984;9.838;2023-02-26T02:05:33;3.70;;;2.50;;
75820;SDS011;64454;51.984;9.838;2023-02-26T02:08:07;4.60;;;2.30;;
75820;SDS011;64454;51.984;9.838;2023-02-26T02:10:35;4.00;;;2.30;;
75820;SDS011;64454;51.984;9.838;2023-02-26T02:13:10;5.25;;;2.40;;
75820;SDS011;64454;51.984;9.838;2023-02-26T02:16:19;4.88;;;2.05;;
75820;SDS011;64454;51.984;9.838;2023-02-26T02:19:04;3.45;;;2.25;;
75820;SDS011;64454;51.984;9.838;2023-02-26T02:22:11;4.43;;;2.20;;
75820;SDS011;64454;51.984;9.838;2023-02-26T02:24:51;2.53;;;1.70;;
75820;SDS011;64454;51.984;9.838;2023-02-26T02:27:42;4.20;;;1.83;;
75820;SDS011;64454;51.984;9.838;2023-02-26T02:30:27;6.28;;;2.20;;
75820;SDS011;64454;51.984;9.838;2023-02-26T02:33:11;4.53;;;2.92;;
75820;SDS011;64454;51.984;9.838;2023-02-26T02:35:43;7.07;;;2.90;;
75820;SDS011;64454;51.984;9.838;2023-02-26T02:38:20;7.00;;;3.10;;
75820;SDS011;64454;51.984;9.838;2023-02-26T02:40:53;5.10;;;2.08;;
75820;SDS011;64454;51.984;9.838;2023-02-26T02:43:29;2.72;;;2.00;;
75820;SDS011;64454;51.984;9.838;2023-02-26T02:46:02;2.83;;;1.80;;
75820;SDS011;64454;51.984;9.838;2023-02-26T02:48:34;4.72;;;1.73;;
75820;SDS011;64454;51.984;9.838;2023-02-26T02:51:07;4.27;;;2.30;;
75820;SDS011;64454;51.984;9.838;2023-02-26T02:53:43;5.55;;;2.13;;
75820;SDS011;64454;51.984;9.838;2023-02-26T02:56:16;4.53;;;1.80;;
75820;SDS011;64454;51.984;9.838;2023-02-26T02:58:48;4.10;;;1.33;;
75820;SDS011;64454;51.984;9.838;2023-02-26T03:01:20;4.35;;;1.50;;
75820;SDS011;64454;51.984;9.838;2023-02-26T03:03:55;4.72;;;1.45;;
75820;SDS011;64454;51.984;9.838;2023-02-26T03:06:29;2.90;;;1.70;;
75820;SDS011;64454;51.984;9.838;2023-02-26T03:08:57;3.60;;;1.20;;
75820;SDS011;64454;51.984;9.838;2023-02-26T03:11:26;2.87;;;1.20;;
75820;SDS011;64454;51.984;9.838;2023-02-26T03:13:53;6.90;;;1.90;;
75820;SDS011;64454;51.984;9.838;2023-02-26T03:16:30;1.77;;;1.38;;
75820;SDS011;64454;51.984;9.838;2023-02-26T03:19:14;5.00;;;1.70;;
75820;SDS011;64454;51.984;9.838;2023-02-26T03:21:54;4.15;;;1.70;;
75820;SDS011;64454;51.984;9.838;2023-02-26T03:24:27;1.73;;;1.30;;
75820;SDS011;64454;51.984;9.838;2023-02-26T03:27:03;3.75;;;1.67;;
75820;SDS011;64454;51.984;9.838;2023-02-26T03:29:37;3.38;;;1.50;;
75820;SDS011;64454;51.984;9.838;2023-02-26T03:32:13;3.20;;;1.80;;
75820;SDS011;64454;51.984;9.838;2023-02-26T03:34:49;2.80;;;1.48;;
75820;SDS011;64454;51.984;9.838;2023-02-26T03:37:25;3.88;;;1.58;;
75820;SDS011;64454;51.984;9.838;2023-02-26T03:40:00;3.30;;;1.30;;
75820;SDS011;64454;51.984;9.838;2023-02-26T03:42:35;2.40;;;1.30;;
75820;SDS011;64454;51.984;9.838;2023-02-26T03:45:10;2.28;;;1.20;;
75820;SDS011;64454;51.984;9.838;2023-02-26T03:47:41;2.45;;;1.30;;
75820;SDS011;64454;51.984;9.838;2023-02-26T03:50:15;5.50;;;1.40;;
75820;SDS011;64454;51.984;9.838;2023-02-26T03:52:47;4.55;;;1.60;;
75820;SDS011;64454;51.984;9.838;2023-02-26T03:55:19;5.35;;;1.80;;
75820;SDS011;64454;51.984;9.838;2023-02-26T03:57:53;3.30;;;1.70;;
75820;SDS011;64454;51.984;9.838;2023-02-26T04:00:21;2.20;;;1.60;;
75820;SDS011;64454;51.984;9.838;2023-02-26T04:02:50;2.75;;;1.25;;
75820;SDS011;64454;51.984;9.838;2023-02-26T04:05:26;4.70;;;1.63;;
75820;SDS011;64454;51.984;9.838;2023-02-26T04:07:56;2.80;;;1.80;;
75820;SDS011;64454;51.984;9.838;2023-02-26T04:10:24;3.70;;;1.30;;
75820;SDS011;64454;51.984;9.838;2023-02-26T04:13:00;3.05;;;1.70;;
75820;SDS011;64454;51.984;9.838;2023-02-26T04:15:28;3.15;;;1.50;;
75820;SDS011;64454;51.984;9.838;2023-02-26T04:17:55;3.53;;;1.67;;
75820;SDS011;64454;51.984;9.838;2023-02-26T04:20:22;2.90;;;1.30;;
75820;SDS011;64454;51.984;9.838;2023-02-26T04:22:50;3.17;;;1.40;;
75820;SDS011;64454;51.984;9.838;2023-02-26T04:25:17;2.90;;;1.90;;
75820;SDS011;64454;51.984;9.838;2023-02-26T04:27:43;4.43;;;1.60;;
75820;SDS011;64454;51.984;9.838;2023-02-26T04:30:10;4.70;;;1.70;;
75820;SDS011;64454;51.984;9.838;2023-02-26T04:32:38;1.75;;;1.42;;
75820;SDS011;64454;51.984;9.838;2023-02-26T04:35:05;2.55;;;1.30;;
75820;SDS011;64454;51.984;9.838;2023-02-26T04:37:32;2.22;;;1.30;;
75820;SDS011;64454;51.984;9.838;2023-02-26T04:40:00;2.33;;;1.25;;
75820;SDS011;64454;51.984;9.838;2023-02-26T04:42:28;1.88;;;1.10;;
75820;SDS011;64454;51.984;9.838;2023-02-26T04:44:55;1.60;;;1.20;;
75820;SDS011;64454;51.984;9.838;2023-02-26T04:47:22;3.50;;;1.60;;
75820;SDS011;64454;51.984;9.838;2023-02-26T04:49:49;3.10;;;1.45;;
75820;SDS011;64454;51.984;9.838;2023-02-26T04:52:15;3.60;;;1.40;;
75820;SDS011;64454;51.984;9.838;2023-02-26T04:54:42;1.60;;;1.30;;
75820;SDS011;64454;51.984;9.838;2023-02-26T04:57:10;1.77;;;1.50;;
75820;SDS011;64454;51.984;9.838;2023-02-26T04:59:37;1.50;;;1.20;;
75820;SDS011;64454;51.984;9.838;2023-02-26T05:02:04;2.47;;;1.30;;
75820;SDS011;64454;51.984;9.838;2023-02-26T05:04:31;1.90;;;1.15;;
75820;SDS011;64454;51.984;9.838;2023-02-26T05:06:58;3.67;;;1.20;;
75820;SDS011;64454;51.984;9.838;2023-02-26T05:09:25;3.97;;;1.30;;
75820;SDS011;64454;51.984;9.838;2023-02-26T05:11:52;3.17;;;1.75;;
75820;SDS011;64454;51.984;9.838;2023-02-26T05:14:21;1.73;;;1.20;;
75820;SDS011;64454;51.984;9.838;2023-02-26T05:16:49;5.47;;;1.70;;
75820;SDS011;64454;51.984;9.838;2023-02-26T05:19:17;3.60;;;1.40;;
75820;SDS011;64454;51.984;9.838;2023-02-26T05:21:44;3.88;;;2.20;;
75820;SDS011;64454;51.984;9.838;2023-02-26T05:24:13;2.42;;;1.30;;
75820;SDS011;64454;51.984;9.838;2023-02-26T05:26:42;2.88;;;1.40;;
75820;SDS011;64454;51.984;9.838;2023-02-26T05:29:10;1.70;;;1.00;;
75820;SDS011;64454;51.984;9.838;2023-02-26T05:31:39;3.00;;;1.00;;
75820;SDS011;64454;51.984;9.838;2023-02-26T05:34:05;1.55;;;1.20;;
75820;SDS011;64454;51.984;9.838;2023-02-26T05:36:33;3.90;;;1.30;;
75820;SDS011;64454;51.984;9.838;2023-02-26T05:39:00;3.10;;;1.10;;
75820;SDS011;64454;51.984;9.838;2023-02-26T05:41:27;3.22;;;1.08;;
75820;SDS011;64454;51.984;9.838;2023-02-26T05:43:53;2.67;;;1.20;;
75820;SDS011;64454;51.984;9.838;2023-02-26T05:46:20;2.03;;;1.08;;
75820;SDS011;64454;51.984;9.838;2023-02-26T05:48:48;3.90;;;1.00;;
75820;SDS011;64454;51.984;9.838;2023-02-26T05:51:15;2.73;;;1.23;;
75820;SDS011;64454;51.984;9.838;2023-02-26T05:53:42;2.97;;;1.20;;
75820;SDS011;64454;51.984;9.838;2023-02-26T05:56:10;4.13;;;1.10;;
75820;SDS011;64454;51.984;9.838;2023-02-26T05:58:37;1.38;;;0.70;;
75820;SDS011;64454;51.984;9.838;2023-02-26T06:01:04;3.88;;;1.10;;
75820;SDS011;64454;51.984;9.838;2023-02-26T06:03:30;3.27;;;1.40;;
75820;SDS011;64454;51.984;9.838;2023-02-26T06:05:59;3.10;;;1.40;;
75820;SDS011;64454;51.984;9.838;2023-02-26T06:08:25;2.92;;;1.20;;
75820;SDS011;64454;51.984;9.838;2023-02-26T06:10:52;4.25;;;1.00;;
75820;SDS011;64454;51.984;9.838;2023-02-26T06:13:19;3.97;;;1.00;;
75820;SDS011;64454;51.984;9.838;2023-02-26T06:15:46;2.22;;;0.80;;
75820;SDS011;64454;51.984;9.838;2023-02-26T06:18:16;3.35;;;0.90;;
75820;SDS011;64454;51.984;9.838;2023-02-26T06:20:43;2.15;;;0.98;;
75820;SDS011;64454;51.984;9.838;2023-02-26T06:23:11;2.17;;;0.80;;
75820;SDS011;64454;51.984;9.838;2023-02-26T06:25:39;2.93;;;1.50;;
75820;SDS011;64454;51.984;9.838;2023-02-26T06:28:06;5.40;;;1.38;;
75820;SDS011;64454;51.984;9.838;2023-02-26T06:30:33;1.90;;;0.80;;
75820;SDS011;64454;51.984;9.838;2023-02-26T06:33:00;3.20;;;0.60;;
75820;SDS011;64454;51.984;9.838;2023-02-26T06:35:28;3.10;;;1.10;;
75820;SDS011;64454;51.984;9.838;2023-02-26T06:37:55;2.00;;;0.80;;
75820;SDS011;64454;51.984;9.838;2023-02-26T06:40:23;1.60;;;1.00;;
75820;SDS011;64454;51.984;9.838;2023-02-26T06:42:50;2.90;;;1.10;;
75820;SDS011;64454;51.984;9.838;2023-02-26T06:45:17;1.38;;;0.70;;
75820;SDS011;64454;51.984;9.838;2023-02-26T06:47:43;2.72;;;0.90;;
75820;SDS011;64454;51.984;9.838;2023-02-26T06:50:10;2.30;;;0.70;;
75820;SDS011;64454;51.984;9.838;2023-02-26T06:52:37;2.08;;;0.98;;
75820;SDS011;64454;51.984;9.838;2023-02-26T06:55:04;1.80;;;0.70;;
75820;SDS011;64454;51.984;9.838;2023-02-26T06:57:34;2.57;;;0.80;;
75820;SDS011;64454;51.984;9.838;2023-02-26T07:00:01;2.13;;;0.90;;
75820;SDS011;64454;51.984;9.838;2023-02-26T07:02:30;1.55;;;0.80;;
75820;SDS011;64454;51.984;9.838;2023-02-26T07:04:56;2.30;;;0.90;;
75820;SDS011;64454;51.984;9.838;2023-02-26T07:07:23;1.45;;;0.80;;
75820;SDS011;64454;51.984;9.838;2023-02-26T07:09:50;1.40;;;1.00;;
75820;SDS011;64454;51.984;9.838;2023-02-26T07:12:17;2.40;;;0.70;;
75820;SDS011;64454;51.984;9.838;2023-02-26T07:14:45;2.65;;;0.90;;
75820;SDS011;64454;51.984;9.838;2023-02-26T07:17:12;2.30;;;0.60;;
75820;SDS011;64454;51.984;9.838;2023-02-26T07:19:44;2.53;;;0.98;;
75820;SDS011;64454;51.984;9.838;2023-02-26T07:22:12;3.90;;;0.80;;
75820;SDS011;64454;51.984;9.838;2023-02-26T07:24:39;1.10;;;0.80;;
75820;SDS011;64454;51.984;9.838;2023-02-26T07:27:06;3.40;;;1.25;;
75820;SDS011;64454;51.984;9.838;2023-02-26T07:29:33;1.80;;;1.00;;
75820;SDS011;64454;51.984;9.838;2023-02-26T07:32:01;2.42;;;0.70;;
75820;SDS011;64454;51.984;9.838;2023-02-26T07:34:29;1.80;;;0.80;;
75820;SDS011;64454;51.984;9.838;2023-02-26T07:36:56;1.80;;;0.70;;
75820;SDS011;64454;51.984;9.838;2023-02-26T07:39:23;4.00;;;0.80;;
75820;SDS011;64454;51.984;9.838;2023-02-26T07:41:50;2.20;;;0.95;;
75820;SDS011;64454;51.984;9.838;2023-02-26T07:44:17;1.80;;;0.80;;
75820;SDS011;64454;51.984;9.838;2023-02-26T07:46:46;0.93;;;0.70;;
75820;SDS011;64454;51.984;9.838;2023-02-26T07:49:14;2.40;;;0.70;;
75820;SDS011;64454;51.984;9.838;2023-02-26T07:51:44;2.20;;;1.40;;
75820;SDS011;64454;51.984;9.838;2023-02-26T07:54:11;3.93;;;1.53;;
75820;SDS011;64454;51.984;9.838;2023-02-26T07:56:38;2.40;;;1.02;;
75820;SDS011;64454;51.984;9.838;2023-02-26T07:59:07;4.00;;;1.02;;
75820;SDS011;64454;51.984;9.838;2023-02-26T08:01:35;1.30;;;0.90;;
75820;SDS011;64454;51.984;9.838;2023-02-26T08:04:02;1.95;;;0.80;;
75820;SDS011;64454;51.984;9.838;2023-02-26T08:06:30;3.20;;;0.90;;
75820;SDS011;64454;51.984;9.838;2023-02-26T08:08:58;3.10;;;1.30;;
75820;SDS011;64454;51.984;9.838;2023-02-26T08:11:25;4.50;;;1.10;;
75820;SDS011;64454;51.984;9.838;2023-02-26T08:13:52;3.20;;;1.02;;
75820;SDS011;64454;51.984;9.838;2023-02-26T08:16:19;1.42;;;0.80;;
75820;SDS011;64454;51.984;9.838;2023-02-26T08:18:46;4.18;;;1.80;;
75820;SDS011;64454;51.984;9.838;2023-02-26T08:21:12;3.60;;;1.40;;
75820;SDS011;64454;51.984;9.838;2023-02-26T08:23:40;6.53;;;3.58;;
75820;SDS011;64454;51.984;9.838;2023-02-26T08:26:08;2.30;;;1.20;;
75820;SDS011;64454;51.984;9.838;2023-02-26T08:28:37;1.90;;;1.00;;
75820;SDS011;64454;51.984;9.838;2023-02-26T08:31:04;3.20;;;1.00;;
75820;SDS011;64454;51.984;9.838;2023-02-26T08:33:32;2.50;;;0.80;;
75820;SDS011;64454;51.984;9.838;2023-02-26T08:35:59;2.00;;;1.10;;
75820;SDS011;64454;51.984;9.838;2023-02-26T08:38:27;2.65;;;0.98;;
75820;SDS011;64454;51.984;9.838;2023-02-26T08:40:56;1.60;;;0.70;;
75820;SDS011;64454;51.984;9.838;2023-02-26T08:43:23;3.10;;;0.98;;
75820;SDS011;64454;51.984;9.838;2023-02-26T08:45:51;2.10;;;0.90;;
75820;SDS011;64454;51.984;9.838;2023-02-26T08:48:18;2.58;;;1.30;;
75820;SDS011;64454;51.984;9.838;2023-02-26T08:50:45;2.42;;;1.10;;
75820;SDS011;64454;51.984;9.838;2023-02-26T08:53:13;2.55;;;1.30;;
75820;SDS011;64454;51.984;9.838;2023-02-26T08:55:40;6.20;;;2.58;;
75820;SDS011;64454;51.984;9.838;2023-02-26T08:58:10;3.78;;;1.38;;
75820;SDS011;64454;51.984;9.838;2023-02-26T09:00:36;4.10;;;1.80;;
75820;SDS011;64454;51.984;9.838;2023-02-26T09:03:03;2.20;;;0.98;;
75820;SDS011;64454;51.984;9.838;2023-02-26T09:05:30;2.17;;;1.05;;
75820;SDS011;64454;51.984;9.838;2023-02-26T09:07:57;3.60;;;1.00;;
75820;SDS011;64454;51.984;9.838;2023-02-26T09:10:23;2.10;;;1.00;;
75820;SDS011;64454;51.984;9.838;2023-02-26T09:12:50;4.25;;;2.08;;
75820;SDS011;64454;51.984;9.838;2023-02-26T09:15:18;1.88;;;1.20;;
75820;SDS011;64454;51.984;9.838;2023-02-26T09:17:45;3.25;;;1.08;;
75820;SDS011;64454;51.984;9.838;2023-02-26T09:20:13;2.00;;;0.90;;
75820;SDS011;64454;51.984;9.838;2023-02-26T09:22:41;1.90;;;0.70;;
75820;SDS011;64454;51.984;9.838;2023-02-26T09:25:08;1.58;;;0.80;;
75820;SDS011;64454;51.984;9.838;2023-02-26T09:27:35;1.70;;;0.70;;
75820;SDS011;64454;51.984;9.838;2023-02-26T09:30:03;4.18;;;1.38;;
75820;SDS011;64454;51.984;9.838;2023-02-26T09:32:33;3.00;;;0.90;;
75820;SDS011;64454;51.984;9.838;2023-02-26T09:34:59;2.75;;;0.77;;
75820;SDS011;64454;51.984;9.838;2023-02-26T09:37:26;2.70;;;1.23;;
75820;SDS011;64454;51.984;9.838;2023-02-26T09:39:53;2.05;;;0.70;;
75820;SDS011;64454;51.984;9.838;2023-02-26T09:42:23;1.50;;;0.90;;
75820;SDS011;64454;51.984;9.838;2023-02-26T09:45:07;2.10;;;0.70;;
75820;SDS011;64454;51.984;9.838;2023-02-26T09:47:52;2.15;;;1.05;;
75820;SDS011;64454;51.984;9.838;2023-02-26T09:50:21;1.27;;;0.90;;
75820;SDS011;64454;51.984;9.838;2023-02-26T09:52:52;2.03;;;0.70;;
75820;SDS011;64454;51.984;9.838;2023-02-26T09:55:28;1.52;;;0.50;;
75820;SDS011;64454;51.984;9.838;2023-02-26T09:58:01;1.80;;;0.80;;
75820;SDS011;64454;51.984;9.838;2023-02-26T10:00:35;3.40;;;1.00;;
75820;SDS011;64454;51.984;9.838;2023-02-26T10:03:15;3.40;;;1.00;;
75820;SDS011;64454;51.984;9.838;2023-02-26T10:05:54;2.40;;;1.08;;
75820;SDS011;64454;51.984;9.838;2023-02-26T10:08:50;3.33;;;0.90;;
75820;SDS011;64454;51.984;9.838;2023-02-26T10:11:35;1.50;;;0.73;;
75820;SDS011;64454;51.984;9.838;2023-02-26T10:14:14;1.92;;;0.80;;
75820;SDS011;64454;51.984;9.838;2023-02-26T10:16:49;2.20;;;0.98;;
75820;SDS011;64454;51.984;9.838;2023-02-26T10:19:24;2.40;;;1.00;;
75820;SDS011;64454;51.984;9.838;2023-02-26T10:21:56;1.80;;;0.70;;
75820;SDS011;64454;51.984;9.838;2023-02-26T10:24:30;1.80;;;0.80;;
75820;SDS011;64454;51.984;9.838;2023-02-26T10:27:05;1.98;;;1.00;;
75820;SDS011;64454;51.984;9.838;2023-02-26T10:29:42;1.50;;;0.80;;
75820;SDS011;64454;51.984;9.838;2023-02-26T10:32:22;1.65;;;0.70;;
75820;SDS011;64454;51.984;9.838;2023-02-26T10:34:57;4.03;;;0.90;;
75820;SDS011;64454;51.984;9.838;2023-02-26T10:37:32;2.10;;;0.80;;
75820;SDS011;64454;51.984;9.838;2023-02-26T10:40:13;1.52;;;0.60;;
75820;SDS011;64454;51.984;9.838;2023-02-26T10:42:49;1.70;;;0.80;;
75820;SDS011;64454;51.984;9.838;2023-02-26T10:45:24;1.92;;;0.70;;
75820;SDS011;64454;51.984;9.838;2023-02-26T10:48:05;1.80;;;0.80;;
75820;SDS011;64454;51.984;9.838;2023-02-26T10:50:49;3.05;;;1.10;;
75820;SDS011;64454;51.984;9.838;2023-02-26T10:53:21;1.83;;;0.80;;
75820;SDS011;64454;51.984;9.838;2023-02-26T10:55:50;2.70;;;1.10;;
75820;SDS011;64454;51.984;9.838;2023-02-26T10:58:25;3.35;;;1.10;;
75820;SDS011;64454;51.984;9.838;2023-02-26T11:00:53;2.30;;;1.00;;
75820;SDS011;64454;51.984;9.838;2023-02-26T11:03:22;2.90;;;0.90;;
75820;SDS011;64454;51.984;9.838;2023-02-26T11:05:58;2.20;;;0.90;;
75820;SDS011;64454;51.984;9.838;2023-02-26T11:08:29;2.20;;;0.90;;
75820;SDS011;64454;51.984;9.838;2023-02-26T11:11:00;3.15;;;0.85;;
75820;SDS011;64454;51.984;9.838;2023-02-26T11:13:30;1.33;;;0.80;;
75820;SDS011;64454;51.984;9.838;2023-02-26T11:16:00;1.20;;;0.60;;
75820;SDS011;64454;51.984;9.838;2023-02-26T11:18:31;1.88;;;0.68;;
75820;SDS011;64454;51.984;9.838;2023-02-26T11:21:15;1.57;;;0.80;;
75820;SDS011;64454;51.984;9.838;2023-02-26T11:23:46;2.53;;;0.85;;
75820;SDS011;64454;51.984;9.838;2023-02-26T11:26:16;1.30;;;0.75;;
75820;SDS011;64454;51.984;9.838;2023-02-26T11:28:45;1.80;;;0.63;;
75820;SDS011;64454;51.984;9.838;2023-02-26T11:31:15;1.88;;;0.80;;
75820;SDS011;64454;51.984;9.838;2023-02-26T11:33:47;3.30;;;1.00;;
75820;SDS011;64454;51.984;9.838;2023-02-26T11:36:17;2.80;;;1.00;;
75820;SDS011;64454;51.984;9.838;2023-02-26T11:38:51;3.10;;;0.90;;
75820;SDS011;64454;51.984;9.838;2023-02-26T11:41:21;1.58;;;0.90;;
75820;SDS011;64454;51.984;9.838;2023-02-26T11:43:57;1.63;;;0.90;;
75820;SDS011;64454;51.984;9.838;2023-02-26T11:46:28;1.52;;;0.80;;
75820;SDS011;64454;51.984;9.838;2023-02-26T11:48:58;4.88;;;1.85;;
75820;SDS011;64454;51.984;9.838;2023-02-26T11:51:28;3.83;;;1.48;;
75820;SDS011;64454;51.984;9.838;2023-02-26T11:53:55;3.00;;;0.90;;
75820;SDS011;64454;51.984;9.838;2023-02-26T11:56:26;3.90;;;1.50;;
75820;SDS011;64454;51.984;9.838;2023-02-26T11:58:59;3.53;;;1.70;;
75820;SDS011;64454;51.984;9.838;2023-02-26T12:01:34;2.90;;;1.40;;
75820;SDS011;64454;51.984;9.838;2023-02-26T12:04:02;2.50;;;1.10;;
75820;SDS011;64454;51.984;9.838;2023-02-26T12:06:30;3.85;;;1.75;;
75820;SDS011;64454;51.984;9.838;2023-02-26T12:08:57;3.60;;;1.30;;
75820;SDS011;64454;51.984;9.838;2023-02-26T12:11:34;1.98;;;1.00;;
75820;SDS011;64454;51.984;9.838;2023-02-26T12:14:34;2.10;;;1.00;;
75820;SDS011;64454;51.984;9.838;2023-02-26T12:17:20;2.70;;;0.90;;
75820;SDS011;64454;51.984;9.838;2023-02-26T12:20:01;3.77;;;1.03;;
75820;SDS011;64454;51.984;9.838;2023-02-26T12:22:48;1.40;;;0.80;;
75820;SDS011;64454;51.984;9.838;2023-02-26T12:28:56;3.20;;;1.00;;
75820;SDS011;64454;51.984;9.838;2023-02-26T12:35:08;2.30;;;0.80;;
75820;SDS011;64454;51.984;9.838;2023-02-26T12:38:07;1.55;;;0.80;;
75820;SDS011;64454;51.984;9.838;2023-02-26T12:41:02;1.90;;;0.80;;
75820;SDS011;64454;51.984;9.838;2023-02-26T12:44:13;1.20;;;0.60;;
75820;SDS011;64454;51.984;9.838;2023-02-26T12:46:58;2.00;;;0.60;;
75820;SDS011;64454;51.984;9.838;2023-02-26T12:50:08;1.80;;;0.80;;
75820;SDS011;64454;51.984;9.838;2023-02-26T12:56:15;1.80;;;0.80;;
75820;SDS011;64454;51.984;9.838;2023-02-26T12:59:06;1.52;;;0.50;;
75820;SDS011;64454;51.984;9.838;2023-02-26T13:02:26;1.25;;;0.60;;
75820;SDS011;64454;51.984;9.838;2023-02-26T13:05:41;1.42;;;0.70;;
75820;SDS011;64454;51.984;9.838;2023-02-26T13:08:27;1.77;;;0.70;;
75820;SDS011;64454;51.984;9.838;2023-02-26T13:11:11;2.53;;;0.80;;
75820;SDS011;64454;51.984;9.838;2023-02-26T13:13:56;1.30;;;0.70;;
75820;SDS011;64454;51.984;9.838;2023-02-26T13:16:43;1.20;;;0.50;;
75820;SDS011;64454;51.984;9.838;2023-02-26T13:19:20;2.42;;;0.75;;
75820;SDS011;64454;51.984;9.838;2023-02-26T13:22:03;2.30;;;0.85;;
75820;SDS011;64454;51.984;9.838;2023-02-26T13:24:44;1.63;;;0.60;;
75820;SDS011;64454;51.984;9.838;2023-02-26T13:27:18;1.48;;;0.65;;
75820;SDS011;64454;51.984;9.838;2023-02-26T13:29:52;1.45;;;0.63;;
75820;SDS011;64454;51.984;9.838;2023-02-26T13:32:39;1.20;;;0.50;;
75820;SDS011;64454;51.984;9.838;2023-02-26T13:35:15;2.80;;;0.70;;
75820;SDS011;64454;51.984;9.838;2023-02-26T13:37:51;1.80;;;0.80;;
75820;SDS011;64454;51.984;9.838;2023-02-26T13:40:30;2.33;;;1.30;;
75820;SDS011;64454;51.984;9.838;2023-02-26T13:43:14;1.70;;;0.90;;
75820;SDS011;64454;51.984;9.838;2023-02-26T13:46:00;2.50;;;1.20;;
75820;SDS011;64454;51.984;9.838;2023-02-26T13:48:41;3.53;;;1.30;;
75820;SDS011;64454;51.984;9.838;2023-02-26T13:51:26;2.50;;;1.08;;
75820;SDS011;64454;51.984;9.838;2023-02-26T13:54:00;2.10;;;1.00;;
75820;SDS011;64454;51.984;9.838;2023-02-26T14:00:00;2.10;;;1.30;;
75820;SDS011;64454;51.984;9.838;2023-02-26T14:02:47;3.33;;;2.00;;
75820;SDS011;64454;51.984;9.838;2023-02-26T14:14:28;2.10;;;1.10;;
75820;SDS011;64454;51.984;9.838;2023-02-26T14:17:26;2.85;;;1.10;;
75820;SDS011;64454;51.984;9.838;2023-02-26T14:23:09;7.57;;;5.10;;
75820;SDS011;64454;51.984;9.838;2023-02-26T14:26:14;31.27;;;18.98;;
75820;SDS011;64454;51.984;9.838;2023-02-26T14:28:56;29.37;;;19.50;;
75820;SDS011;64454;51.984;9.838;2023-02-26T14:31:54;10.48;;;8.30;;
75820;SDS011;64454;51.984;9.838;2023-02-26T14:34:42;2.22;;;1.85;;
75820;SDS011;64454;51.984;9.838;2023-02-26T14:37:18;5.27;;;4.77;;
75820;SDS011;64454;51.984;9.838;2023-02-26T14:39:49;2.90;;;1.20;;
75820;SDS011;64454;51.984;9.838;2023-02-26T14:42:25;1.13;;;0.70;;
75820;SDS011;64454;51.984;9.838;2023-02-26T14:45:06;1.65;;;1.10;;
75820;SDS011;64454;51.984;9.838;2023-02-26T14:47:48;2.23;;;1.00;;
75820;SDS011;64454;51.984;9.838;2023-02-26T14:50:16;2.50;;;1.20;;
75820;SDS011;64454;51.984;9.838;2023-02-26T14:52:51;1.30;;;0.80;;
75820;SDS011;64454;51.984;9.838;2023-02-26T14:55:54;2.00;;;0.80;;
75820;SDS011;64454;51.984;9.838;2023-02-26T14:58:40;2.10;;;0.80;;
75820;SDS011;64454;51.984;9.838;2023-02-26T15:01:44;1.60;;;0.90;;
75820;SDS011;64454;51.984;9.838;2023-02-26T15:07:23;2.20;;;0.90;;
75820;SDS011;64454;51.984;9.838;2023-02-26T15:10:12;2.25;;;0.80;;
75820;SDS011;64454;51.984;9.838;2023-02-26T15:13:06;1.50;;;1.20;;
75820;SDS011;64454;51.984;9.838;2023-02-26T15:16:02;1.20;;;0.50;;
75820;SDS011;64454;51.984;9.838;2023-02-26T15:18:45;1.30;;;0.70;;
75820;SDS011;64454;51.984;9.838;2023-02-26T15:21:41;1.60;;;0.80;;
75820;SDS011;64454;51.984;9.838;2023-02-26T15:24:25;2.25;;;1.05;;
75820;SDS011;64454;51.984;9.838;2023-02-26T15:26:56;1.60;;;0.90;;
75820;SDS011;64454;51.984;9.838;2023-02-26T15:29:28;1.80;;;1.10;;
75820;SDS011;64454;51.984;9.838;2023-02-26T15:32:03;0.88;;;0.60;;
75820;SDS011;64454;51.984;9.838;2023-02-26T15:34:40;1.20;;;0.60;;
75820;SDS011;64454;51.984;9.838;2023-02-26T15:37:18;2.00;;;0.80;;
75820;SDS011;64454;51.984;9.838;2023-02-26T15:39:47;1.55;;;0.40;;
75820;SDS011;64454;51.984;9.838;2023-02-26T15:42:15;2.50;;;0.70;;
75820;SDS011;64454;51.984;9.838;2023-02-26T15:44:44;2.10;;;0.60;;
75820;SDS011;64454;51.984;9.838;2023-02-26T15:47:12;3.90;;;1.07;;
75820;SDS011;64454;51.984;9.838;2023-02-26T15:49:43;2.53;;;1.00;;
75820;SDS011;64454;51.984;9.838;2023-02-26T15:52:14;1.33;;;0.70;;
75820;SDS011;64454;51.984;9.838;2023-02-26T15:54:47;1.55;;;0.80;;
75820;SDS011;64454;51.984;9.838;2023-02-26T15:57:18;2.22;;;0.90;;
75820;SDS011;64454;51.984;9.838;2023-02-26T15:59:48;2.55;;;0.80;;